Time;durP1;ratioP1;P1;durP2;ratioP2;P2;SDS_P1;SDS_P2;PMS_P1;PMS_P2;Temp;Humidity;BMP_temperature;BMP_pressure;BME280_temperature;BME280_humidity;BME280_pressure;Samples;Min_cycle;Max_cycle;Signal;HPM_P1;HPM_P2
2024/02/08 00:02:31;;;;;;;;;;;;;;;17.20;45.32;98392.28;10244123;28;1055;-68
2024/02/08 00:07:27;;;;;;;;;;;;;;;17.18;45.01;98396.78;10243747;28;1898;-68
2024/02/08 00:12:24;;;;;;;;;;;;;;;17.19;45.26;98409.03;10243620;28;960;-68
2024/02/08 00:17:20;;;;;;;;;;;;;;;17.18;45.21;98419.66;10245073;28;858;-68
2024/02/08 00:22:16;;;;;;;;;;;;;;;17.17;45.28;98410.91;10252318;28;780;-68
2024/02/08 00:27:11;;;;;;;;;;;;;;;17.17;45.06;98417.97;10251681;28;1937;-68
2024/02/08 00:32:07;;;;;;;;;;;;;;;17.16;45.00;98411.88;10250518;28;1614;-68
2024/02/08 00:37:03;;;;;;;;;;;;;;;17.15;45.27;98389.09;10251827;28;942;-68
2024/02/08 00:41:59;;;;;;;;;;;;;;;17.15;45.14;98393.53;10251555;28;879;-68
2024/02/08 00:46:55;;;;;;;;;;;;;;;17.14;45.04;98381.31;10251294;28;1922;-68
2024/02/08 00:51:51;;;;;;;;;;;;;;;17.12;45.04;98378.75;10250646;28;808;-68
2024/02/08 00:56:47;;;;;;;;;;;;;;;17.12;44.96;98373.50;10251027;28;799;-68
2024/02/08 01:01:42;;;;;;;;;;;;;;;17.12;45.24;98370.03;10250846;28;995;-68
2024/02/08 01:06:40;;;;;;;;;;;;;;;17.10;45.10;98370.09;10250027;28;1963;-68
2024/02/08 01:11:36;;;;;;;;;;;;;;;17.10;45.08;98380.63;10249794;28;924;-68
2024/02/08 01:16:33;;;;;;;;;;;;;;;17.07;45.00;98386.94;10250190;28;846;-68
2024/02/08 01:21:30;;;;;;;;;;;;;;;17.07;44.99;98389.56;10249491;28;955;-68
2024/02/08 01:26:26;;;;;;;;;;;;;;;17.05;45.20;98401.97;10249843;28;1961;-68
2024/02/08 01:31:22;;;;;;;;;;;;;;;17.04;45.22;98397.66;10247915;28;1307;-68
2024/02/08 01:36:17;;;;;;;;;;;;;;;17.02;45.12;98402.16;10248938;28;914;-68
2024/02/08 01:41:13;;;;;;;;;;;;;;;17.01;45.08;98397.84;10248128;28;1022;-68
2024/02/08 01:46:12;;;;;;;;;;;;;;;17.01;45.46;98389.97;10248587;28;854;-68
2024/02/08 01:51:11;;;;;;;;;;;;;;;17.00;44.99;98385.66;10247670;28;1898;-68
2024/02/08 01:56:11;;;;;;;;;;;;;;;16.98;44.96;98381.41;10248188;28;922;-68
2024/02/08 02:01:07;;;;;;;;;;;;;;;16.99;45.17;98378.66;10248632;28;889;-68
2024/02/08 02:06:08;;;;;;;;;;;;;;;16.97;45.19;98393.72;10247682;28;812;-68
2024/02/08 02:11:05;;;;;;;;;;;;;;;16.96;44.98;98386.75;10247621;28;1953;-68
2024/02/08 02:16:01;;;;;;;;;;;;;;;16.97;44.98;98400.75;10247859;28;830;-68
2024/02/08 02:20:57;;;;;;;;;;;;;;;16.95;44.95;98394.75;10247191;28;906;-68
2024/02/08 02:25:53;;;;;;;;;;;;;;;16.94;44.94;98396.53;10247826;28;826;-68
2024/02/08 02:30:50;;;;;;;;;;;;;;;16.93;45.14;98394.84;10246897;28;1953;-68
2024/02/08 02:35:48;;;;;;;;;;;;;;;16.93;44.79;98378.22;10246514;28;970;-68
2024/02/08 02:40:46;;;;;;;;;;;;;;;16.92;44.96;98387.03;10246098;28;1154;-68
2024/02/08 02:45:42;;;;;;;;;;;;;;;16.92;44.88;98382.63;10246269;28;870;-68
2024/02/08 02:50:41;;;;;;;;;;;;;;;16.92;44.93;98384.41;10245452;28;1983;-68
2024/02/08 02:55:37;;;;;;;;;;;;;;;16.92;44.94;98387.88;10245831;28;974;-68
2024/02/08 03:00:37;;;;;;;;;;;;;;;16.91;45.03;98378.31;10245765;28;810;-68
2024/02/08 03:05:33;;;;;;;;;;;;;;;16.90;45.04;98379.25;10245938;28;783;-68
2024/02/08 03:10:29;;;;;;;;;;;;;;;16.89;45.06;98367.00;10245905;28;1967;-68
2024/02/08 03:15:25;;;;;;;;;;;;;;;16.89;44.92;98337.22;10245926;28;802;-67
2024/02/08 03:20:29;;;;;;;;;;;;;;;16.88;44.96;98330.28;10245774;28;814;-68
2024/02/08 03:25:25;;;;;;;;;;;;;;;16.87;45.17;98313.63;10245383;28;834;-68
2024/02/08 03:30:25;;;;;;;;;;;;;;;16.87;45.03;98342.56;10244492;28;1910;-67
2024/02/08 03:35:29;;;;;;;;;;;;;;;16.87;44.92;98342.56;10244328;28;939;-68
2024/02/08 03:40:28;;;;;;;;;;;;;;;16.86;44.90;98341.72;10245154;28;895;-68
2024/02/08 03:45:27;;;;;;;;;;;;;;;16.86;45.12;98347.00;10243805;28;1057;-68
2024/02/08 03:50:24;;;;;;;;;;;;;;;16.84;44.98;98340.97;10244135;28;1972;-67
2024/02/08 03:55:26;;;;;;;;;;;;;;;16.85;45.05;98326.06;10243975;28;780;-68
2024/02/08 04:00:28;;;;;;;;;;;;;;;16.84;44.97;98330.44;10243962;28;893;-68
2024/02/08 04:05:37;;;;;;;;;;;;;;;16.82;44.84;98329.72;10244616;28;815;-67
2024/02/08 04:57:36;;;;;;;;;;;;;;;16.85;44.81;98307.63;10234509;28;1325;-68
2024/02/08 05:02:33;;;;;;;;;;;;;;;16.87;44.92;98311.00;10243681;28;866;-68
2024/02/08 05:07:28;;;;;;;;;;;;;;;16.88;44.71;98298.69;10250721;28;1894;-68
2024/02/08 05:12:24;;;;;;;;;;;;;;;16.91;44.77;98301.97;10249941;28;850;-68
2024/02/08 05:17:22;;;;;;;;;;;;;;;16.93;44.69;98300.09;10250346;28;865;-68
2024/02/08 05:22:18;;;;;;;;;;;;;;;16.96;44.92;98294.63;10250314;28;759;-68
2024/02/08 05:27:13;;;;;;;;;;;;;;;16.97;44.76;98288.41;10249270;28;1902;-68
2024/02/08 05:32:09;;;;;;;;;;;;;;;16.99;44.74;98309.41;10248782;28;1483;-68
2024/02/08 05:37:05;;;;;;;;;;;;;;;16.99;44.88;98309.41;10250289;28;961;-68
2024/02/08 05:42:02;;;;;;;;;;;;;;;17.01;44.94;98286.47;10248919;28;918;-68
2024/02/08 05:47:06;;;;;;;;;;;;;;;17.02;45.03;98293.41;10249314;28;1977;-67
2024/02/08 05:52:05;;;;;;;;;;;;;;;17.03;45.15;98284.59;10248795;28;823;-67
2024/02/08 05:57:05;;;;;;;;;;;;;;;17.03;45.29;98274.06;10248869;28;886;-68
2024/02/08 06:02:05;;;;;;;;;;;;;;;16.99;45.32;98278.66;10248098;28;764;-67
2024/02/08 06:07:07;;;;;;;;;;;;;;;16.98;45.06;98282.22;10248034;28;1894;-69
2024/02/08 06:12:09;;;;;;;;;;;;;;;16.95;45.07;98271.91;10247685;28;838;-68
2024/02/08 06:17:07;;;;;;;;;;;;;;;16.95;44.98;98277.16;10247316;28;850;-67
2024/02/08 06:22:16;;;;;;;;;;;;;;;16.93;44.94;98273.78;10247929;28;818;-67
2024/02/08 06:27:14;;;;;;;;;;;;;;;16.92;44.90;98268.59;10247666;28;1957;-68
2024/02/08 06:33:07;;;;;;;;;;;;;;;16.94;45.01;98272.00;10247141;28;1183;-67
2024/02/08 06:37:31;;;;;;;;;;;;;;;16.95;45.02;98277.16;10243002;28;1561;-68
2024/02/08 07:40:01;;;;;;;;;;;;;;;17.09;44.73;98268.38;10244582;28;601;-67
2024/02/08 07:44:57;;;;;;;;;;;;;;;17.09;44.73;98265.75;10244579;28;939;-67
2024/02/08 07:50:04;;;;;;;;;;;;;;;17.10;44.52;98270.06;10244128;28;1954;-67
2024/02/08 07:55:20;;;;;;;;;;;;;;;17.11;44.42;98266.50;10244056;28;845;-67
2024/02/08 08:00:32;;;;;;;;;;;;;;;17.12;44.50;98264.72;10244556;28;819;-67
2024/02/08 08:05:31;;;;;;;;;;;;;;;17.09;44.61;98256.06;10243924;28;863;-67
2024/02/08 08:10:33;;;;;;;;;;;;;;;17.06;44.65;98229.09;10244865;28;1886;-67
2024/02/08 08:15:29;;;;;;;;;;;;;;;17.05;44.67;98214.22;10244818;28;833;-67
2024/02/08 08:26:00;;;;;;;;;;;;;;;17.03;44.67;98208.25;10243339;28;684;-67
2024/02/08 08:31:00;;;;;;;;;;;;;;;17.00;44.65;98200.53;10243529;28;1882;-67
2024/02/08 08:36:05;;;;;;;;;;;;;;;16.99;44.63;98190.94;10243950;28;938;-67
2024/02/08 08:41:04;;;;;;;;;;;;;;;17.00;44.61;98192.63;10249020;28;1111;-67
2024/02/08 08:46:00;;;;;;;;;;;;;;;17.01;44.61;98197.81;10251017;28;967;-67
2024/02/08 08:50:55;;;;;;;;;;;;;;;17.02;44.49;98180.22;10250797;28;1910;-68
2024/02/08 08:55:51;;;;;;;;;;;;;;;17.02;44.43;98177.59;10251206;28;863;-67
2024/02/08 09:00:47;;;;;;;;;;;;;;;17.04;44.35;98159.91;10250450;28;819;-67
2024/02/08 09:05:46;;;;;;;;;;;;;;;17.06;44.45;98155.41;10250353;28;941;-67
2024/02/08 09:10:42;;;;;;;;;;;;;;;17.07;44.58;98143.91;10250580;28;1953;-67
2024/02/08 09:15:47;;;;;;;;;;;;;;;17.09;44.55;98131.50;10251121;28;944;-67
2024/02/08 09:20:44;;;;;;;;;;;;;;;17.09;44.38;98113.06;10249692;28;879;-67
2024/02/08 09:25:45;;;;;;;;;;;;;;;17.11;44.42;98112.94;10249458;28;938;-67
2024/02/08 09:30:52;;;;;;;;;;;;;;;17.12;44.66;98107.59;10249162;28;1943;-67
2024/02/08 09:35:48;;;;;;;;;;;;;;;17.13;44.47;98100.53;10249055;28;891;-67
2024/02/08 09:40:45;;;;;;;;;;;;;;;17.13;44.42;98084.75;10248948;28;780;-67
2024/02/08 09:50:37;;;;;;;;;;;;;;;17.14;44.59;98092.53;10247338;28;1977;-67
2024/02/08 09:55:33;;;;;;;;;;;;;;;17.15;44.55;98091.59;10248350;28;881;-67
2024/02/08 10:00:35;;;;;;;;;;;;;;;17.13;44.53;98087.38;10248782;28;806;-67
2024/02/08 10:05:51;;;;;;;;;;;;;;;17.15;44.41;98088.13;10249035;28;870;-67
2024/02/08 10:11:07;;;;;;;;;;;;;;;17.15;44.48;98073.16;10249125;28;1890;-67
2024/02/08 10:16:12;;;;;;;;;;;;;;;17.16;44.57;98055.56;10247794;28;900;-67
2024/02/08 10:21:12;;;;;;;;;;;;;;;17.17;44.58;98031.78;10248599;28;839;-67
2024/02/08 10:26:19;;;;;;;;;;;;;;;17.19;44.46;98015.91;10247311;28;987;-67
2024/02/08 10:31:22;;;;;;;;;;;;;;;17.18;44.35;98012.41;10247255;28;1949;-67
2024/02/08 10:36:18;;;;;;;;;;;;;;;17.19;44.56;98000.09;10246834;28;957;-67
2024/02/08 10:41:18;;;;;;;;;;;;;;;17.18;44.32;97993.97;10247176;28;991;-67
2024/02/08 10:46:17;;;;;;;;;;;;;;;17.21;44.33;97977.97;10246394;28;900;-67
2024/02/08 10:51:25;;;;;;;;;;;;;;;17.19;44.35;97974.59;10245554;28;1958;-67
2024/02/08 10:56:40;;;;;;;;;;;;;;;17.20;44.35;97971.00;10246138;28;831;-68
2024/02/08 11:06:54;;;;;;;;;;;;;;;17.19;44.44;97947.44;10245620;28;1951;-68
2024/02/08 11:11:51;;;;;;;;;;;;;;;17.21;44.50;97958.69;10246035;28;868;-67
2024/02/08 11:16:47;;;;;;;;;;;;;;;17.21;44.45;97925.31;10245240;28;853;-67
2024/02/08 11:21:43;;;;;;;;;;;;;;;17.22;44.72;97910.38;10245107;28;932;-67
2024/02/08 11:26:39;;;;;;;;;;;;;;;17.22;44.62;97890.13;10244893;28;893;-67
2024/02/08 11:31:35;;;;;;;;;;;;;;;17.22;44.68;97863.81;10244677;28;1890;-67
2024/02/08 11:36:34;;;;;;;;;;;;;;;17.25;44.66;97878.53;10245230;28;1004;-67
2024/02/08 11:41:31;;;;;;;;;;;;;;;17.24;44.63;97846.13;10245173;28;954;-67
2024/02/08 11:46:27;;;;;;;;;;;;;;;17.26;44.45;97870.53;10244436;28;846;-67
2024/02/08 11:51:23;;;;;;;;;;;;;;;17.26;44.54;97862.63;10244260;28;1906;-71
2024/02/08 11:56:20;;;;;;;;;;;;;;;17.26;44.63;97854.72;10245015;28;933;-68
2024/02/08 12:01:17;;;;;;;;;;;;;;;17.28;44.74;97849.34;10244701;28;785;-67
2024/02/08 12:06:13;;;;;;;;;;;;;;;17.28;44.55;97846.72;10243947;28;883;-68
2024/02/08 12:11:09;;;;;;;;;;;;;;;17.27;44.78;97834.53;10243788;28;1954;-68
2024/02/08 12:16:05;;;;;;;;;;;;;;;17.28;44.82;97836.19;10250589;28;948;-68
2024/02/08 12:21:01;;;;;;;;;;;;;;;17.26;44.87;97825.75;10252888;28;827;-67
2024/02/08 12:25:57;;;;;;;;;;;;;;;17.28;44.87;97826.50;10252355;28;942;-68
2024/02/08 12:30:53;;;;;;;;;;;;;;;17.27;44.85;97798.50;10251650;28;1957;-70
2024/02/08 12:35:49;;;;;;;;;;;;;;;17.23;45.05;97807.56;10251431;28;931;-69
2024/02/08 12:40:46;;;;;;;;;;;;;;;17.23;44.89;97790.91;10252424;28;858;-69
2024/02/08 12:45:42;;;;;;;;;;;;;;;17.26;44.62;97794.16;10251004;28;970;-69
2024/02/08 12:50:38;;;;;;;;;;;;;;;17.28;44.75;97778.28;10251494;28;1914;-68
2024/02/08 12:55:34;;;;;;;;;;;;;;;17.27;44.74;97772.16;10251528;28;786;-68
2024/02/08 13:00:37;;;;;;;;;;;;;;;17.27;44.79;97780.06;10251092;28;818;-68
2024/02/08 13:05:33;;;;;;;;;;;;;;;17.29;44.77;97785.19;10250307;28;857;-68
2024/02/08 13:10:31;;;;;;;;;;;;;;;17.29;44.82;97775.53;10250043;28;1990;-68
2024/02/08 13:15:27;;;;;;;;;;;;;;;17.28;44.81;97778.28;10250511;28;1651;-68
2024/02/08 13:20:23;;;;;;;;;;;;;;;17.29;44.75;97751.84;10249988;28;918;-68
2024/02/08 13:25:19;;;;;;;;;;;;;;;17.30;44.65;97745.59;10250223;28;937;-69
2024/02/08 13:30:15;;;;;;;;;;;;;;;17.28;44.88;97722.97;10249093;28;1894;-67
2024/02/08 13:35:18;;;;;;;;;;;;;;;17.22;44.69;97711.09;10249191;28;810;-67
2024/02/08 13:40:14;;;;;;;;;;;;;;;17.21;44.79;97703.31;10249087;28;817;-68
2024/02/08 13:45:12;;;;;;;;;;;;;;;17.19;44.80;97694.69;10249430;28;802;-68
2024/02/08 13:50:11;;;;;;;;;;;;;;;17.24;44.77;97672.34;10249393;28;1965;-68
2024/02/08 13:55:07;;;;;;;;;;;;;;;17.25;44.83;97678.44;10248539;28;882;-68
2024/02/08 14:00:03;;;;;;;;;;;;;;;17.25;44.60;97668.75;10248359;28;776;-68
2024/02/08 14:05:04;;;;;;;;;;;;;;;17.25;44.89;97670.53;10248769;28;841;-67
2024/02/08 14:10:01;;;;;;;;;;;;;;;17.26;44.80;97638.81;10247784;28;1970;-68
2024/02/08 14:14:58;;;;;;;;;;;;;;;17.28;44.85;97636.91;10248070;28;862;-67
2024/02/08 14:19:55;;;;;;;;;;;;;;;17.29;44.82;97616.69;10248139;28;880;-67
2024/02/08 14:24:51;;;;;;;;;;;;;;;17.28;44.72;97610.59;10247157;28;775;-67
2024/02/08 14:29:48;;;;;;;;;;;;;;;17.30;44.67;97623.66;10246510;28;1894;-67
2024/02/08 14:34:43;;;;;;;;;;;;;;;17.29;44.70;97625.44;10246247;28;995;-67
2024/02/08 14:39:39;;;;;;;;;;;;;;;17.29;44.72;97611.41;10245892;28;903;-67
2024/02/08 14:44:41;;;;;;;;;;;;;;;17.31;44.86;97596.34;10246255;28;797;-67
2024/02/08 14:49:55;;;;;;;;;;;;;;;17.30;44.73;97587.63;10246079;28;1964;-67
2024/02/08 14:54:54;;;;;;;;;;;;;;;17.30;44.72;97577.09;10245925;28;826;-67
2024/02/08 14:59:52;;;;;;;;;;;;;;;17.32;44.75;97569.09;10245677;28;954;-67
2024/02/08 15:04:52;;;;;;;;;;;;;;;17.31;44.71;97551.59;10246094;28;792;-67
2024/02/08 15:09:48;;;;;;;;;;;;;;;17.33;44.69;97543.59;10245380;28;1894;-68
2024/02/08 15:14:45;;;;;;;;;;;;;;;17.31;44.82;97526.09;10244501;28;1318;-67
2024/02/08 15:19:48;;;;;;;;;;;;;;;17.31;44.86;97510.28;10245545;28;866;-67
2024/02/08 15:24:46;;;;;;;;;;;;;;;17.33;44.83;97501.47;10245430;28;810;-68
2024/02/08 15:29:51;;;;;;;;;;;;;;;17.32;44.77;97482.19;10244570;28;1882;-67
2024/02/08 15:34:58;;;;;;;;;;;;;;;17.34;44.89;97476.78;10245501;28;838;-67
2024/02/08 15:40:09;;;;;;;;;;;;;;;17.35;44.81;97462.69;10244426;28;982;-67
2024/02/08 15:45:10;;;;;;;;;;;;;;;17.34;44.99;97451.28;10244314;28;1167;-67
2024/02/08 15:50:15;;;;;;;;;;;;;;;17.31;45.00;97436.56;10243163;28;1970;-68
2024/02/08 15:55:14;;;;;;;;;;;;;;;17.35;44.82;97428.47;10244218;28;833;-68
2024/02/08 16:05:28;;;;;;;;;;;;;;;17.34;44.72;97411.81;10243993;28;613;-68
2024/02/08 16:10:31;;;;;;;;;;;;;;;17.37;44.94;97397.56;10244957;28;1918;-67
2024/02/08 16:15:27;;;;;;;;;;;;;;;17.36;44.85;97398.53;10243606;28;771;-68
2024/02/08 16:20:24;;;;;;;;;;;;;;;17.37;44.77;97393.16;10244255;28;880;-69
2024/02/08 16:25:44;;;;;;;;;;;;;;;17.38;44.93;97388.72;10243586;28;812;-70
2024/02/08 16:30:51;;;;;;;;;;;;;;;17.37;45.04;97382.63;10244360;28;1899;-67
2024/02/08 16:36:08;;;;;;;;;;;;;;;17.38;44.87;97370.28;10243805;28;898;-69
2024/02/08 16:41:06;;;;;;;;;;;;;;;17.38;45.05;97367.66;10242755;28;951;-68
2024/02/08 16:46:11;;;;;;;;;;;;;;;17.35;45.11;97350.28;10243784;28;966;-69
2024/02/08 16:51:16;;;;;;;;;;;;;;;17.38;45.08;97350.06;10243048;28;1910;-67
2024/02/08 16:56:12;;;;;;;;;;;;;;;17.38;45.06;97352.69;10243523;28;866;-67
2024/02/08 17:01:28;;;;;;;;;;;;;;;17.39;45.01;97353.50;10247869;28;826;-67
2024/02/08 17:06:43;;;;;;;;;;;;;;;17.38;45.03;97343.94;10250380;28;895;-68
2024/02/08 17:11:40;;;;;;;;;;;;;;;17.37;45.16;97347.53;10250964;28;1957;-67
2024/02/08 17:16:36;;;;;;;;;;;;;;;17.40;44.99;97349.94;10250509;28;790;-67
2024/02/08 17:21:44;;;;;;;;;;;;;;;17.40;44.94;97344.69;10250713;28;791;-67
2024/02/08 17:26:58;;;;;;;;;;;;;;;17.40;44.94;97347.31;10250804;28;920;-67
2024/02/08 17:31:56;;;;;;;;;;;;;;;17.40;45.02;97339.41;10249178;28;1339;-67
2024/02/08 17:36:53;;;;;;;;;;;;;;;17.41;45.04;97328.72;10249234;28;797;-68
2024/02/08 17:41:49;;;;;;;;;;;;;;;17.41;44.98;97318.19;10248753;28;1002;-68
2024/02/08 17:46:46;;;;;;;;;;;;;;;17.41;44.92;97307.66;10248557;28;843;-67
2024/02/08 17:51:48;;;;;;;;;;;;;;;17.42;44.87;97305.88;10248347;28;1906;-67
2024/02/08 17:56:45;;;;;;;;;;;;;;;17.43;44.86;97291.75;10249251;28;802;-67
2024/02/08 18:06:58;;;;;;;;;;;;;;;17.45;44.85;97295.09;10248059;28;1898;-68
2024/02/08 18:11:54;;;;;;;;;;;;;;;17.45;44.93;97300.38;10246027;28;971;-67
2024/02/08 18:16:51;;;;;;;;;;;;;;;17.46;45.09;97299.41;10246835;28;1186;-67
2024/02/08 18:21:47;;;;;;;;;;;;;;;17.44;45.07;97301.31;10247255;28;1830;-67
2024/02/08 18:26:44;;;;;;;;;;;;;;;17.46;45.09;97300.22;10247700;28;848;-68
2024/02/08 18:31:41;;;;;;;;;;;;;;;17.48;45.01;97300.94;10247053;28;1902;-67
2024/02/08 18:36:37;;;;;;;;;;;;;;;17.46;45.23;97300.22;10247319;28;826;-68
2024/02/08 18:41:33;;;;;;;;;;;;;;;17.46;45.04;97287.06;10247089;28;859;-67
2024/02/08 18:46:31;;;;;;;;;;;;;;;17.47;45.04;97282.63;10246995;28;925;-68
2024/02/08 18:51:30;;;;;;;;;;;;;;;17.47;45.09;97282.63;10246575;28;2029;-68
2024/02/08 18:56:26;;;;;;;;;;;;;;;17.48;45.22;97281.69;10246479;28;858;-67
2024/02/08 19:01:24;;;;;;;;;;;;;;;17.47;45.25;97277.38;10245726;28;850;-67
2024/02/08 19:06:21;;;;;;;;;;;;;;;17.48;45.04;97284.31;10246081;28;969;-68
2024/02/08 19:11:19;;;;;;;;;;;;;;;17.48;45.16;97276.41;10246069;28;1898;-68
2024/02/08 19:16:15;;;;;;;;;;;;;;;17.48;45.09;97279.06;10245123;28;895;-67
2024/02/08 19:21:14;;;;;;;;;;;;;;;17.48;45.32;97274.63;10245090;28;800;-67
2024/02/08 19:26:13;;;;;;;;;;;;;;;17.49;45.25;97283.34;10245557;28;869;-67
2024/02/08 19:31:11;;;;;;;;;;;;;;;17.49;45.20;97278.91;10244965;28;1890;-68
2024/02/08 19:36:09;;;;;;;;;;;;;;;17.50;45.35;97271.84;10244458;28;887;-67
2024/02/08 19:41:07;;;;;;;;;;;;;;;17.49;45.21;97265.75;10244494;28;878;-67
2024/02/08 19:46:02;;;;;;;;;;;;;;;17.51;45.38;97255.94;10244238;28;1157;-67
2024/02/08 19:51:01;;;;;;;;;;;;;;;17.50;45.33;97264.81;10244164;28;1914;-67
2024/02/08 19:55:57;;;;;;;;;;;;;;;17.50;45.30;97254.28;10244580;28;886;-67
2024/02/08 20:00:58;;;;;;;;;;;;;;;17.51;45.21;97252.47;10244492;28;862;-67
2024/02/08 20:05:54;;;;;;;;;;;;;;;17.52;45.58;97240.97;10243884;28;1729;-67
2024/02/08 20:10:51;;;;;;;;;;;;;;;17.51;45.21;97234.84;10244461;28;1902;-67
2024/02/08 20:15:52;;;;;;;;;;;;;;;17.51;45.42;97247.19;10244153;28;869;-68
2024/02/08 20:20:51;;;;;;;;;;;;;;;17.51;45.56;97237.50;10243504;28;876;-67
2024/02/08 20:25:51;;;;;;;;;;;;;;;17.49;45.64;97249.94;10242843;28;1425;-67
2024/02/08 20:30:47;;;;;;;;;;;;;;;17.51;45.37;97249.81;10244095;28;1898;-68
2024/02/08 20:35:43;;;;;;;;;;;;;;;17.51;45.50;97257.72;10246473;28;1171;-67
2024/02/08 20:40:40;;;;;;;;;;;;;;;17.48;45.62;97247.44;10251138;28;815;-68
2024/02/08 20:45:36;;;;;;;;;;;;;;;17.46;45.52;97255.47;10251488;28;855;-67
2024/02/08 20:50:34;;;;;;;;;;;;;;;17.48;45.72;97255.34;10250735;28;1967;-67
2024/02/08 20:55:34;;;;;;;;;;;;;;;17.46;45.78;97244.94;10250932;28;805;-67
2024/02/08 21:00:31;;;;;;;;;;;;;;;17.47;45.86;97251.03;10250594;28;794;-67
2024/02/08 21:05:27;;;;;;;;;;;;;;;17.44;45.73;97246.84;10251231;28;831;-68
2024/02/08 21:10:26;;;;;;;;;;;;;;;17.43;45.67;97245.19;10250042;28;1902;-67
2024/02/08 21:15:22;;;;;;;;;;;;;;;17.43;45.80;97249.63;10249862;28;871;-67
2024/02/08 21:20:18;;;;;;;;;;;;;;;17.42;45.66;97246.16;10249330;28;1547;-68
2024/02/08 21:25:19;;;;;;;;;;;;;;;17.42;45.90;97238.25;10250355;28;962;-67
2024/02/08 21:30:18;;;;;;;;;;;;;;;17.42;45.87;97237.41;10249315;28;1953;-67
2024/02/08 21:35:14;;;;;;;;;;;;;;;17.40;45.79;97229.66;10249536;28;865;-67
2024/02/08 21:40:10;;;;;;;;;;;;;;;17.39;46.03;97229.75;10249086;28;888;-67
2024/02/08 21:45:05;;;;;;;;;;;;;;;17.37;45.92;97235.16;10249105;28;871;-67
2024/02/08 21:50:06;;;;;;;;;;;;;;;17.37;45.92;97229.03;10249328;28;1906;-67
2024/02/08 21:55:06;;;;;;;;;;;;;;;17.36;45.85;97230.00;10249182;28;822;-67
2024/02/08 22:00:10;;;;;;;;;;;;;;;17.34;45.72;97230.13;10249055;28;798;-67
2024/02/08 22:05:09;;;;;;;;;;;;;;;17.33;45.73;97236.34;10248226;28;868;-67
2024/02/08 22:10:11;;;;;;;;;;;;;;;17.29;45.88;97222.63;10248493;28;1894;-67
2024/02/08 22:15:07;;;;;;;;;;;;;;;17.27;46.00;97224.53;10248447;28;883;-67
2024/02/08 22:20:11;;;;;;;;;;;;;;;17.26;45.79;97217.59;10248239;28;864;-67
2024/02/08 22:25:07;;;;;;;;;;;;;;;17.25;46.01;97220.34;10247467;28;863;-67
2024/02/08 22:30:02;;;;;;;;;;;;;;;17.22;46.07;97210.09;10247327;28;1963;-67
2024/02/08 22:34:58;;;;;;;;;;;;;;;17.22;45.68;97199.56;10247696;28;1007;-67
2024/02/08 22:39:54;;;;;;;;;;;;;;;17.19;45.92;97182.22;10247652;28;795;-67
2024/02/08 22:44:50;;;;;;;;;;;;;;;17.17;45.79;97173.59;10246589;28;984;-67
2024/02/08 22:49:46;;;;;;;;;;;;;;;17.17;45.82;97163.06;10246398;28;1919;-67
2024/02/08 22:54:43;;;;;;;;;;;;;;;17.15;45.94;97159.72;10246302;28;863;-67
2024/02/08 22:59:39;;;;;;;;;;;;;;;17.15;45.98;97172.88;10245597;28;807;-67
2024/02/08 23:04:37;;;;;;;;;;;;;;;17.14;45.98;97158.06;10246511;28;803;-67
2024/02/08 23:09:33;;;;;;;;;;;;;;;17.12;46.12;97159.13;10246381;28;1959;-67
2024/02/08 23:14:29;;;;;;;;;;;;;;;17.12;45.93;97153.88;10245574;28;880;-67
2024/02/08 23:19:31;;;;;;;;;;;;;;;17.12;45.91;97148.63;10244811;28;1140;-67
2024/02/08 23:24:27;;;;;;;;;;;;;;;17.10;45.93;97138.19;10245832;28;865;-67
2024/02/08 23:29:24;;;;;;;;;;;;;;;17.08;46.11;97134.84;10245770;28;1894;-67
2024/02/08 23:34:20;;;;;;;;;;;;;;;17.08;45.98;97129.59;10244859;28;915;-67
2024/02/08 23:39:16;;;;;;;;;;;;;;;17.08;45.87;97129.59;10244769;28;896;-67
2024/02/08 23:44:12;;;;;;;;;;;;;;;17.07;45.82;97130.56;10244620;28;830;-67
2024/02/08 23:49:07;;;;;;;;;;;;;;;17.06;45.89;97121.00;10244756;28;1906;-67
2024/02/08 23:54:05;;;;;;;;;;;;;;;17.04;45.97;97109.75;10244302;28;857;-67
2024/02/08 23:59:01;;;;;;;;;;;;;;;17.05;45.92;97103.53;10244164;28;879;-67
